Time;durP1;ratioP1;P1;durP2;ratioP2;P2;SDS_P1;SDS_P2;PMS_P1;PMS_P2;Temp;Humidity;BMP_temperature;BMP_pressure;BME280_temperature;BME280_humidity;BME280_pressure;Samples;Min_cycle;Max_cycle;Signal;HPM_P1;HPM_P2
2023/09/16 00:00:39;;;;;;;0.25;0.25;;;;;;;18.60;99.93;94935.38;5053967;28;20211;-74
2023/09/16 00:03:06;;;;;;;1.23;0.75;;;;;;;18.66;100.00;94925.69;5053191;28;20249;-74
2023/09/16 00:05:34;;;;;;;0.30;0.30;;;;;;;18.58;99.85;94923.97;5040301;28;20212;-74
2023/09/16 00:08:02;;;;;;;0.63;0.63;;;;;;;18.64;100.00;94922.50;5052994;28;20228;-75
2023/09/16 00:10:29;;;;;;;0.38;0.38;;;;;;;18.65;99.99;94918.59;5052936;28;20273;-71
2023/09/16 00:12:56;;;;;;;1.17;0.80;;;;;;;18.63;100.00;94909.94;5052401;28;20598;-74
2023/09/16 00:15:23;;;;;;;1.05;0.95;;;;;;;18.54;100.00;94906.69;5053242;28;20204;-74
2023/09/16 00:17:49;;;;;;;0.10;0.10;;;;;;;18.59;100.00;94904.41;5053036;28;20330;-75
2023/09/16 00:20:16;;;;;;;0.20;0.20;;;;;;;18.73;100.00;94901.84;5052676;28;20203;-74
2023/09/16 00:22:43;;;;;;;0.70;0.70;;;;;;;18.58;100.00;94908.34;5052492;28;20211;-74
2023/09/16 00:25:12;;;;;;;0.20;0.20;;;;;;;18.53;100.00;94907.84;5040814;28;20645;-75
2023/09/16 00:27:39;;;;;;;0.20;0.20;;;;;;;18.51;100.00;94908.19;5052417;28;20262;-75
2023/09/16 00:30:07;;;;;;;0.75;0.75;;;;;;;18.55;100.00;94913.75;5052470;28;20218;-75
2023/09/16 00:32:34;;;;;;;0.55;0.55;;;;;;;18.63;100.00;94921.72;5052316;28;20207;-74
2023/09/16 00:35:02;;;;;;;0.45;0.45;;;;;;;18.54;100.00;94923.13;5052523;28;20446;-74
2023/09/16 00:37:29;;;;;;;0.10;0.10;;;;;;;18.61;100.00;94918.56;5048037;28;20199;-74
2023/09/16 00:39:56;;;;;;;0.32;0.32;;;;;;;18.58;100.00;94923.97;5052510;28;20287;-73
2023/09/16 00:42:25;;;;;;;0.30;0.30;;;;;;;18.47;98.35;94924.59;5052387;28;20655;-74
2023/09/16 00:44:51;;;;;;;0.75;0.70;;;;;;;18.55;98.76;94931.00;5052194;28;20223;-73
2023/09/16 00:47:18;;;;;;;1.30;0.60;;;;;;;18.66;98.98;94931.97;5052392;28;20219;-74
2023/09/16 00:49:46;;;;;;;0.70;0.70;;;;;;;18.68;98.83;94939.84;5052239;28;20604;-74
2023/09/16 00:52:13;;;;;;;0.20;0.20;;;;;;;18.73;98.30;94937.53;5052459;28;20601;-74
2023/09/16 00:54:40;;;;;;;0.22;0.22;;;;;;;18.77;98.71;94932.09;5052024;28;20206;-74
2023/09/16 00:57:11;;;;;;;0.30;0.30;;;;;;;18.69;99.46;94933.19;5053340;28;20204;-74
2023/09/16 00:59:39;;;;;;;0.50;0.50;;;;;;;18.67;98.83;94932.75;5060766;28;20200;-73
2023/09/16 01:02:09;;;;;;;2.45;0.50;;;;;;;18.67;99.19;94930.00;5053717;28;20709;-73
2023/09/16 01:04:36;;;;;;;0.22;0.22;;;;;;;18.58;98.88;94918.50;5051946;28;20246;-74
2023/09/16 01:07:04;;;;;;;0.38;0.38;;;;;;;18.55;98.57;94913.75;5051966;28;20631;-73
2023/09/16 01:09:31;;;;;;;2.28;0.57;;;;;;;18.49;98.82;94910.53;5051059;28;20323;-74
2023/09/16 01:11:57;;;;;;;0.30;0.30;;;;;;;18.48;99.35;94908.94;5051954;28;20613;-73
2023/09/16 01:14:25;;;;;;;0.30;0.30;;;;;;;18.40;100.00;94905.31;5051671;28;20246;-73
2023/09/16 01:16:59;;;;;;;0.10;0.10;;;;;;;18.38;100.00;94904.88;5051790;28;20638;-74
2023/09/16 01:19:37;;;;;;;0.20;0.20;;;;;;;18.38;100.00;94893.13;5051650;28;20246;-73
2023/09/16 01:22:07;;;;;;;0.50;0.50;;;;;;;18.33;100.00;94890.69;5051928;28;20200;-74
2023/09/16 01:24:34;;;;;;;0.40;0.40;;;;;;;18.25;100.00;94892.56;5051990;28;20666;-73
2023/09/16 01:27:02;;;;;;;0.40;0.35;;;;;;;18.28;100.00;94886.34;5051437;28;20261;-73
2023/09/16 01:29:30;;;;;;;0.30;0.30;;;;;;;18.23;100.00;94894.88;5051743;28;20289;-75
2023/09/16 01:32:01;;;;;;;0.15;0.15;;;;;;;18.20;100.00;94898.34;5051037;28;20206;-73
2023/09/16 01:34:34;;;;;;;0.40;0.40;;;;;;;18.16;100.00;94881.06;5051860;28;20200;-74
2023/09/16 01:37:02;;;;;;;0.82;0.55;;;;;;;18.10;100.00;94883.31;5051822;28;20566;-73
2023/09/16 01:39:30;;;;;;;0.20;0.20;;;;;;;18.04;100.00;94878.53;5051388;28;20195;-74
2023/09/16 01:41:59;;;;;;;0.20;0.20;;;;;;;18.14;100.00;94891.63;5051319;28;20207;-73
2023/09/16 01:44:27;;;;;;;0.28;0.28;;;;;;;18.15;100.00;94901.41;5051507;28;20299;-73
2023/09/16 01:46:55;;;;;;;0.30;0.30;;;;;;;18.15;100.00;94904.16;5050490;28;20261;-74
2023/09/16 01:49:22;;;;;;;1.85;0.50;;;;;;;18.18;100.00;94908.88;5038429;28;20227;-74
2023/09/16 01:51:49;;;;;;;0.25;0.25;;;;;;;18.12;100.00;94907.63;5051040;28;20203;-74
2023/09/16 01:54:16;;;;;;;0.35;0.35;;;;;;;18.03;100.00;94915.34;5051087;28;20299;-74
2023/09/16 01:56:45;;;;;;;0.40;0.40;;;;;;;17.98;100.00;94918.38;5050704;28;20349;-76
2023/09/16 01:59:12;;;;;;;0.50;0.50;;;;;;;17.90;100.00;94920.22;5039056;28;20204;-76
2023/09/16 02:01:40;;;;;;;0.35;0.35;;;;;;;17.90;100.00;94922.19;5050837;28;20200;-76
2023/09/16 02:04:07;;;;;;;1.65;1.48;;;;;;;17.91;100.00;94923.72;5051081;28;20226;-76
2023/09/16 02:06:34;;;;;;;0.20;0.20;;;;;;;17.91;100.00;94923.72;5050636;28;20237;-77
2023/09/16 02:09:00;;;;;;;0.68;0.68;;;;;;;17.89;100.00;94932.34;5050625;28;20223;-76
2023/09/16 02:11:27;;;;;;;0.20;0.20;;;;;;;17.96;100.00;94921.47;5050625;28;20215;-76
2023/09/16 02:13:54;;;;;;;0.30;0.30;;;;;;;18.00;100.00;94935.25;5050619;28;20266;-76
2023/09/16 02:16:21;;;;;;;0.30;0.30;;;;;;;18.03;100.00;94938.06;5050499;28;20211;-76
2023/09/16 02:18:49;;;;;;;1.27;1.25;;;;;;;18.08;100.00;94923.22;5050399;28;20196;-76
2023/09/16 02:21:16;;;;;;;0.15;0.15;;;;;;;18.03;100.00;94923.56;5050908;28;20276;-76
2023/09/16 02:23:43;;;;;;;0.30;0.30;;;;;;;18.01;100.00;94934.09;5050525;28;20676;-76
2023/09/16 02:26:09;;;;;;;0.55;0.43;;;;;;;18.00;100.00;94927.03;5050739;28;20269;-76
2023/09/16 02:28:36;;;;;;;0.20;0.20;;;;;;;17.94;100.00;94925.75;5049903;28;20277;-76
2023/09/16 02:31:03;;;;;;;0.47;0.30;;;;;;;17.80;100.00;94920.03;5050748;28;20211;-76
2023/09/16 02:33:30;;;;;;;2.47;0.57;;;;;;;17.73;100.00;94924.25;5050783;28;20203;-76
2023/09/16 02:35:58;;;;;;;1.65;0.55;;;;;;;17.73;100.00;94929.72;5050252;28;20215;-76
2023/09/16 02:38:25;;;;;;;0.20;0.20;;;;;;;17.74;100.00;94939.53;5050114;28;20210;-76
2023/09/16 02:40:52;;;;;;;0.90;0.60;;;;;;;17.70;100.00;94932.41;5050389;28;20242;-76
2023/09/16 02:43:18;;;;;;;0.73;0.57;;;;;;;17.60;100.00;94936.50;5050693;28;20208;-75
2023/09/16 02:45:45;;;;;;;0.25;0.25;;;;;;;17.56;100.00;94932.91;5050157;28;20203;-76
2023/09/16 02:48:17;;;;;;;0.10;0.10;;;;;;;17.60;100.00;94942.00;5050310;28;20223;-76
2023/09/16 02:50:47;;;;;;;0.38;0.38;;;;;;;17.53;100.00;94944.59;5050513;28;20208;-76
2023/09/16 02:53:16;;;;;;;0.98;0.95;;;;;;;17.58;100.00;94952.53;5050146;28;20266;-76
2023/09/16 02:55:43;;;;;;;0.30;0.30;;;;;;;17.52;100.00;94948.47;5049826;28;20208;-76
2023/09/16 02:58:09;;;;;;;0.15;0.15;;;;;;;17.57;100.00;94948.19;5060111;28;20199;-76
2023/09/16 03:00:36;;;;;;;0.30;0.30;;;;;;;17.78;100.00;94953.28;5046032;28;20199;-76
2023/09/16 03:03:03;;;;;;;0.50;0.50;;;;;;;17.89;100.00;94958.97;5050679;28;21052;-76
2023/09/16 03:05:30;;;;;;;0.40;0.40;;;;;;;17.85;100.00;94952.63;5050109;28;20294;-76
2023/09/16 03:07:57;;;;;;;0.30;0.30;;;;;;;17.79;100.00;94937.63;5049946;28;20234;-76
2023/09/16 03:10:25;;;;;;;4.55;1.13;;;;;;;18.03;100.00;94961.94;5049876;28;20706;-76
2023/09/16 03:12:52;;;;;;;0.38;0.38;;;;;;;17.88;100.00;94951.91;5049471;28;20349;-76
2023/09/16 03:15:19;;;;;;;0.30;0.30;;;;;;;17.82;100.00;94953.34;5050344;28;20274;-76
2023/09/16 03:17:45;;;;;;;0.20;0.20;;;;;;;17.79;100.00;94965.03;5049942;28;20821;-76
2023/09/16 03:20:12;;;;;;;0.32;0.32;;;;;;;17.77;100.00;94968.94;5050098;28;20541;-76
2023/09/16 03:22:39;;;;;;;0.57;0.57;;;;;;;17.87;100.00;94961.28;5049994;28;20261;-76
2023/09/16 03:25:06;;;;;;;0.30;0.30;;;;;;;17.85;100.00;94963.59;5049809;28;20226;-76
2023/09/16 03:27:36;;;;;;;0.15;0.15;;;;;;;17.84;100.00;94951.81;5050210;28;20227;-76
2023/09/16 03:30:03;;;;;;;0.73;0.73;;;;;;;17.81;100.00;94949.03;5049743;28;20763;-76
2023/09/16 03:32:30;;;;;;;0.43;0.43;;;;;;;17.85;100.00;94964.38;5049915;28;20208;-76
2023/09/16 03:34:57;;;;;;;0.30;0.30;;;;;;;17.85;100.00;94963.59;5053393;28;20302;-76
2023/09/16 03:37:24;;;;;;;0.68;0.68;;;;;;;17.95;100.00;94962.97;5053943;28;20195;-76
2023/09/16 03:39:51;;;;;;;0.38;0.38;;;;;;;18.04;100.00;94969.00;5053320;28;20207;-76
2023/09/16 03:42:18;;;;;;;0.40;0.40;;;;;;;18.16;100.00;94968.81;5053822;28;20204;-76
2023/09/16 03:44:46;;;;;;;0.88;0.63;;;;;;;18.26;100.00;94973.66;5053226;28;20214;-76
2023/09/16 03:47:13;;;;;;;0.22;0.22;;;;;;;18.29;100.00;94977.63;5053836;28;20200;-76
2023/09/16 03:49:40;;;;;;;0.20;0.20;;;;;;;18.31;99.66;94975.31;5053620;28;20632;-76
2023/09/16 03:52:07;;;;;;;0.25;0.25;;;;;;;18.38;99.61;94978.94;5054211;28;20548;-76
2023/09/16 03:54:33;;;;;;;0.35;0.35;;;;;;;18.42;99.24;94979.03;5053889;28;20208;-76
2023/09/16 03:57:00;;;;;;;0.40;0.40;;;;;;;18.37;98.87;94974.63;5053129;28;20207;-76
2023/09/16 03:59:27;;;;;;;0.38;0.38;;;;;;;18.37;99.68;94985.59;5067353;28;20203;-76
2023/09/16 04:01:55;;;;;;;0.60;0.60;;;;;;;18.35;100.00;94987.91;5054818;28;20207;-76
2023/09/16 04:04:22;;;;;;;0.60;0.55;;;;;;;18.37;100.00;94996.56;5053454;28;20210;-76
2023/09/16 04:06:49;;;;;;;14.60;0.95;;;;;;;18.30;100.00;95004.69;5052708;28;20199;-76
2023/09/16 04:09:16;;;;;;;1.00;0.65;;;;;;;18.37;100.00;95007.53;5053208;28;20231;-76
2023/09/16 04:11:43;;;;;;;0.30;0.30;;;;;;;18.35;100.00;95004.38;5053116;28;20310;-76
2023/09/16 04:14:10;;;;;;;0.30;0.30;;;;;;;18.25;100.00;95015.97;5052989;28;20293;-76
2023/09/16 04:16:39;;;;;;;0.28;0.28;;;;;;;18.25;100.00;95005.00;5053201;28;20212;-76
2023/09/16 04:19:07;;;;;;;0.40;0.40;;;;;;;18.24;100.00;95017.13;5053380;28;20285;-76
2023/09/16 04:21:34;;;;;;;0.40;0.40;;;;;;;18.22;100.00;95022.19;5053266;28;20579;-76
2023/09/16 04:24:00;;;;;;;0.70;0.63;;;;;;;18.04;100.00;95021.88;5052911;28;20199;-76
2023/09/16 04:26:27;;;;;;;0.20;0.20;;;;;;;17.92;100.00;95024.00;5052940;28;20203;-76
2023/09/16 04:28:54;;;;;;;0.55;0.55;;;;;;;17.80;100.00;95016.75;5052423;28;20235;-76
2023/09/16 04:31:21;;;;;;;0.30;0.30;;;;;;;17.68;100.00;95017.72;5052990;28;20261;-76
2023/09/16 04:33:48;;;;;;;0.35;0.30;;;;;;;17.72;100.00;95013.09;5052523;28;20299;-76
2023/09/16 04:36:16;;;;;;;0.20;0.20;;;;;;;17.73;100.00;95000.97;5052531;28;20262;-76
2023/09/16 04:38:43;;;;;;;0.30;0.30;;;;;;;17.52;100.00;95005.22;5052714;28;20207;-76
2023/09/16 04:41:10;;;;;;;0.20;0.20;;;;;;;17.41;100.00;95008.56;5039094;28;20200;-76
2023/09/16 04:43:36;;;;;;;0.20;0.20;;;;;;;17.36;100.00;95010.78;5052491;28;20264;-76
2023/09/16 04:46:03;;;;;;;0.55;0.43;;;;;;;17.33;100.00;95022.47;5052274;28;20199;-76
2023/09/16 04:48:30;;;;;;;0.20;0.20;;;;;;;17.35;100.00;95018.22;5052241;28;20338;-76
2023/09/16 04:50:57;;;;;;;0.40;0.28;;;;;;;17.41;100.00;95016.75;5052290;28;20204;-76
2023/09/16 04:53:25;;;;;;;0.20;0.20;;;;;;;17.37;100.00;95020.56;5052641;28;20203;-76
2023/09/16 04:56:00;;;;;;;0.22;0.22;;;;;;;17.38;100.00;95017.47;5052109;28;20648;-76
2023/09/16 04:58:27;;;;;;;0.10;0.10;;;;;;;17.39;100.00;95023.75;5063189;28;20302;-76
2023/09/16 05:00:54;;;;;;;0.65;0.65;;;;;;;17.32;100.00;95029.09;5052431;28;20290;-75
2023/09/16 05:03:20;;;;;;;0.20;0.20;;;;;;;17.36;100.00;95024.47;5051989;28;20210;-75
2023/09/16 05:05:47;;;;;;;0.10;0.10;;;;;;;17.41;100.00;95033.19;5052023;28;20199;-76
2023/09/16 05:08:14;;;;;;;0.55;0.40;;;;;;;17.45;100.00;95035.22;5051919;28;20211;-75
2023/09/16 05:10:42;;;;;;;0.20;0.20;;;;;;;17.48;100.00;95032.56;5051640;28;20238;-75
2023/09/16 05:13:09;;;;;;;0.68;0.68;;;;;;;17.52;100.00;95027.94;5047353;28;20242;-75
2023/09/16 05:15:36;;;;;;;1.38;0.57;;;;;;;17.56;100.00;95028.78;5051819;28;20204;-75
2023/09/16 05:18:03;;;;;;;0.30;0.30;;;;;;;17.48;100.00;95021.59;5051464;28;20273;-75
2023/09/16 05:20:29;;;;;;;0.40;0.40;;;;;;;17.47;100.00;95020.03;5051472;28;20210;-76
2023/09/16 05:22:56;;;;;;;0.70;0.70;;;;;;;17.53;100.00;95037.72;5051851;28;20208;-76
2023/09/16 05:25:23;;;;;;;0.30;0.30;;;;;;;17.64;100.00;95046.19;5052173;28;20587;-76
2023/09/16 05:27:51;;;;;;;0.68;0.68;;;;;;;17.65;100.00;95043.09;5051533;28;20211;-75
2023/09/16 05:30:18;;;;;;;0.20;0.20;;;;;;;17.69;100.00;95049.44;5051489;28;20230;-76
2023/09/16 05:32:45;;;;;;;0.55;0.55;;;;;;;17.56;100.00;95045.22;5048474;28;20293;-76
2023/09/16 05:35:11;;;;;;;0.30;0.30;;;;;;;17.42;100.00;95034.78;5051740;28;20215;-76
2023/09/16 05:37:38;;;;;;;0.30;0.30;;;;;;;17.37;100.00;95031.53;5048999;28;20219;-75
2023/09/16 05:40:06;;;;;;;0.40;0.40;;;;;;;17.33;100.00;95026.00;5047391;28;20230;-75
2023/09/16 05:42:34;;;;;;;0.20;0.20;;;;;;;17.33;100.00;95042.44;5045589;28;20611;-75
2023/09/16 05:45:03;;;;;;;0.50;0.50;;;;;;;17.36;100.00;95051.84;5049228;28;20617;-75
2023/09/16 05:47:30;;;;;;;0.52;0.52;;;;;;;17.29;100.00;95068.16;5042790;28;20626;-75
2023/09/16 05:49:58;;;;;;;1.05;0.73;;;;;;;17.31;100.00;95060.38;5045410;28;20719;-76
2023/09/16 05:52:25;;;;;;;0.85;0.85;;;;;;;17.43;100.00;95062.97;5044799;28;20269;-75
2023/09/16 05:54:51;;;;;;;0.30;0.30;;;;;;;17.42;100.00;95044.94;5044850;28;20208;-75
2023/09/16 05:57:18;;;;;;;0.70;0.70;;;;;;;17.45;100.00;95052.44;5036931;28;20285;-75
2023/09/16 05:59:45;;;;;;;0.10;0.10;;;;;;;17.55;100.00;95043.66;5041975;28;20215;-76
2023/09/16 06:02:15;;;;;;;0.57;0.57;;;;;;;17.58;100.00;95053.09;5048873;28;20251;-76
2023/09/16 06:04:41;;;;;;;0.85;0.68;;;;;;;17.64;100.00;95063.41;5042310;28;20215;-75
2023/09/16 06:07:08;;;;;;;0.57;0.57;;;;;;;17.65;100.00;95059.53;5038897;28;20559;-75
2023/09/16 06:09:35;;;;;;;0.90;0.60;;;;;;;17.57;100.00;95057.78;5041029;28;20304;-74
2023/09/16 06:12:02;;;;;;;0.60;0.60;;;;;;;17.50;100.00;95060.34;5044674;28;20223;-74
2023/09/16 06:14:30;;;;;;;0.38;0.38;;;;;;;17.46;100.00;95065.00;5042227;28;20216;-74
2023/09/16 06:16:57;;;;;;;2.50;0.85;;;;;;;17.37;100.00;95048.75;5042102;28;20299;-73
2023/09/16 06:19:26;;;;;;;0.40;0.40;;;;;;;17.54;100.00;95068.66;5038767;28;20268;-72
2023/09/16 06:21:53;;;;;;;0.80;0.52;;;;;;;17.69;100.00;95063.13;5040047;28;20623;-75
2023/09/16 06:24:20;;;;;;;0.20;0.20;;;;;;;17.80;100.00;95055.09;5044153;28;21044;-76
2023/09/16 06:26:47;;;;;;;0.65;0.65;;;;;;;17.57;100.00;95046.81;5039097;28;20216;-74
2023/09/16 06:29:14;;;;;;;0.63;0.38;;;;;;;17.47;100.00;95036.44;5041416;28;20289;-73
2023/09/16 06:31:41;;;;;;;0.43;0.43;;;;;;;17.43;100.00;95049.28;5041319;28;20253;-74
2023/09/16 06:34:07;;;;;;;0.65;0.65;;;;;;;17.45;100.00;95060.66;5041794;28;20287;-70
2023/09/16 06:36:38;;;;;;;0.43;0.43;;;;;;;17.43;100.00;95068.44;5041502;28;20212;-73
2023/09/16 06:39:07;;;;;;;0.75;0.75;;;;;;;17.44;100.00;95064.56;5036977;28;20266;-74
2023/09/16 06:41:34;;;;;;;0.47;0.47;;;;;;;17.33;100.00;95069.03;5039506;28;20546;-74
2023/09/16 06:44:01;;;;;;;0.30;0.30;;;;;;;17.35;100.00;95066.72;5039858;28;20649;-75
2023/09/16 06:46:27;;;;;;;0.40;0.40;;;;;;;17.38;100.00;95065.97;5041704;28;20215;-75
2023/09/16 06:48:54;;;;;;;0.47;0.47;;;;;;;17.49;100.00;95067.03;5042308;28;20211;-74
2023/09/16 06:51:21;;;;;;;0.63;0.63;;;;;;;17.69;100.00;95071.34;5039484;28;20298;-76
2023/09/16 06:53:49;;;;;;;1.05;0.95;;;;;;;17.71;100.00;95074.53;5043472;28;20207;-74
2023/09/16 06:56:16;;;;;;;0.40;0.40;;;;;;;17.86;100.00;95069.31;5041166;28;20212;-75
2023/09/16 06:58:43;;;;;;;0.52;0.52;;;;;;;18.08;100.00;95065.81;5039048;28;20686;-75
2023/09/16 07:01:10;;;;;;;0.38;0.38;;;;;;;18.18;100.00;95070.69;5047964;28;20195;-74
2023/09/16 07:03:37;;;;;;;0.35;0.35;;;;;;;18.39;100.00;95082.03;5045164;28;20218;-75
2023/09/16 07:06:05;;;;;;;0.17;0.17;;;;;;;18.38;100.00;95088.69;5031599;28;20207;-75
2023/09/16 07:08:32;;;;;;;0.50;0.50;;;;;;;18.22;100.00;95082.53;5038261;28;20287;-75
2023/09/16 07:11:18;;;;;;;0.20;0.20;;;;;;;18.07;100.00;95075.19;5037877;28;20226;-79
2023/09/16 07:13:45;;;;;;;1.05;0.95;;;;;;;17.86;100.00;95080.28;5042166;28;20235;-73
2023/09/16 07:16:12;;;;;;;0.68;0.68;;;;;;;17.82;100.00;95093.13;5053846;28;20208;-74
2023/09/16 07:18:39;;;;;;;0.50;0.50;;;;;;;17.87;100.00;95093.63;5053875;28;20203;-75
2023/09/16 07:21:06;;;;;;;0.43;0.43;;;;;;;17.98;100.00;95099.31;5059314;28;20660;-76
2023/09/16 07:23:33;;;;;;;0.43;0.43;;;;;;;18.10;100.00;95088.19;5053867;28;20311;-77
2023/09/16 07:26:01;;;;;;;0.38;0.38;;;;;;;18.14;100.00;95082.75;5053844;28;20268;-77
2023/09/16 07:28:29;;;;;;;0.70;0.60;;;;;;;18.17;100.00;95071.88;5053939;28;20252;-78
2023/09/16 07:30:56;;;;;;;0.88;0.77;;;;;;;18.28;100.00;95086.56;5053190;28;20241;-78
2023/09/16 07:33:23;;;;;;;0.60;0.60;;;;;;;18.29;100.00;95081.88;5053949;28;20226;-74
2023/09/16 07:35:51;;;;;;;0.30;0.30;;;;;;;18.36;100.00;95077.28;5052925;28;20684;-75
2023/09/16 07:38:18;;;;;;;0.45;0.45;;;;;;;18.25;100.00;95070.81;5053446;28;20290;-75
2023/09/16 07:40:45;;;;;;;0.40;0.40;;;;;;;18.17;100.00;95058.16;5053580;28;20571;-76
2023/09/16 07:43:16;;;;;;;0.52;0.52;;;;;;;18.14;100.00;95061.63;5049935;28;20195;-79
2023/09/16 07:45:43;;;;;;;0.40;0.40;;;;;;;18.17;100.00;95068.34;5051328;28;20207;-78
2023/09/16 07:48:10;;;;;;;3.45;1.15;;;;;;;18.16;100.00;95084.00;5052538;28;20204;-78
2023/09/16 07:50:38;;;;;;;0.10;0.10;;;;;;;18.27;100.00;95090.44;5053392;28;20636;-78
2023/09/16 07:53:05;;;;;;;0.30;0.30;;;;;;;18.39;100.00;95095.75;5046631;28;20317;-76
2023/09/16 07:55:32;;;;;;;0.65;0.60;;;;;;;18.53;100.00;95102.66;5050128;28;20269;-75
2023/09/16 07:57:58;;;;;;;0.40;0.40;;;;;;;18.30;100.00;95106.19;5040373;28;20219;-78
2023/09/16 08:00:28;;;;;;;0.50;0.50;;;;;;;18.46;100.00;95109.59;5046201;28;20204;-75
2023/09/16 08:02:55;;;;;;;0.90;0.68;;;;;;;18.32;100.00;95103.84;5053753;28;20218;-76
2023/09/16 08:05:22;;;;;;;0.60;0.60;;;;;;;18.25;100.00;95103.75;5042645;28;20211;-75
2023/09/16 08:07:49;;;;;;;0.45;0.45;;;;;;;18.18;100.00;95109.06;5039252;28;20385;-75
2023/09/16 08:10:16;;;;;;;0.30;0.30;;;;;;;18.33;100.00;95097.22;5042136;28;20242;-74
2023/09/16 08:12:43;;;;;;;0.45;0.45;;;;;;;18.34;100.00;95095.25;5034453;28;20719;-77
2023/09/16 08:15:10;;;;;;;0.35;0.35;;;;;;;18.60;100.00;95086.31;5039551;28;20289;-75
2023/09/16 08:17:38;;;;;;;0.60;0.60;;;;;;;18.78;100.00;95092.88;5039341;28;20611;-76
2023/09/16 08:20:06;;;;;;;0.35;0.35;;;;;;;19.02;100.00;95097.97;5044458;28;20302;-77
2023/09/16 08:22:33;;;;;;;1.13;0.90;;;;;;;19.31;100.00;95092.88;5038622;28;20291;-74
2023/09/16 08:25:00;;;;;;;1.25;1.15;;;;;;;19.54;100.00;95099.13;5040735;28;20262;-76
2023/09/16 08:27:27;;;;;;;0.60;0.60;;;;;;;19.82;100.00;95068.41;5042383;28;20568;-74
2023/09/16 08:29:54;;;;;;;0.30;0.30;;;;;;;19.64;100.00;95081.97;5042306;28;20580;-74
2023/09/16 08:32:22;;;;;;;0.73;0.73;;;;;;;20.04;100.00;95085.97;5045305;28;20244;-74
2023/09/16 08:34:51;;;;;;;0.32;0.32;;;;;;;20.23;100.00;95096.75;5039705;28;20318;-77
2023/09/16 08:37:18;;;;;;;0.25;0.25;;;;;;;20.08;100.00;95098.59;5045677;28;20294;-74
2023/09/16 08:39:45;;;;;;;0.30;0.30;;;;;;;19.81;100.00;95099.84;5043687;28;20203;-74
2023/09/16 08:42:21;;;;;;;0.90;0.90;;;;;;;19.61;100.00;95096.47;5041431;28;20208;-76
2023/09/16 08:44:54;;;;;;;1.55;1.38;;;;;;;19.31;100.00;95109.38;5037057;28;20188;-77
2023/09/16 08:47:28;;;;;;;0.50;0.50;;;;;;;19.25;100.00;95117.16;5043499;28;20283;-77
2023/09/16 08:50:05;;;;;;;0.30;0.30;;;;;;;19.06;100.00;95109.81;5050448;28;20215;-74
2023/09/16 08:52:46;;;;;;;0.13;0.13;;;;;;;19.22;100.00;95125.34;5037103;28;20231;-76
2023/09/16 08:55:14;;;;;;;0.28;0.28;;;;;;;19.23;100.00;95129.66;5040060;28;20611;-76
2023/09/16 08:57:45;;;;;;;0.75;0.75;;;;;;;19.43;100.00;95133.88;5038571;28;20200;-76
2023/09/16 09:00:14;;;;;;;0.38;0.38;;;;;;;19.83;100.00;95134.03;5044607;28;20214;-75
2023/09/16 09:02:41;;;;;;;0.70;0.68;;;;;;;19.84;100.00;95124.63;5037664;28;20268;-76
2023/09/16 09:05:12;;;;;;;0.30;0.30;;;;;;;20.26;100.00;95129.03;5043044;28;20203;-73
2023/09/16 09:07:42;;;;;;;0.17;0.17;;;;;;;20.89;100.00;95125.34;5035698;28;20816;-75
2023/09/16 09:10:12;;;;;;;0.35;0.35;;;;;;;21.07;100.00;95131.75;5036936;28;20302;-75
2023/09/16 09:12:40;;;;;;;2.75;1.38;;;;;;;21.89;100.00;95126.75;5040601;28;20334;-74
2023/09/16 09:15:12;;;;;;;0.30;0.30;;;;;;;22.17;100.00;95118.63;5038964;28;20236;-75
2023/09/16 09:17:40;;;;;;;1.10;0.50;;;;;;;22.11;100.00;95122.16;5045991;28;20647;-76
2023/09/16 09:20:14;;;;;;;3.45;2.33;;;;;;;22.51;100.00;95123.84;5039774;28;20211;-73
2023/09/16 09:22:41;;;;;;;0.88;0.63;;;;;;;22.94;100.00;95110.88;5046508;28;20264;-74
2023/09/16 09:25:10;;;;;;;0.38;0.38;;;;;;;22.92;100.00;95118.78;5041697;28;20564;-76
2023/09/16 09:27:37;;;;;;;4.20;2.35;;;;;;;22.36;100.00;95117.50;5051575;28;20222;-75
2023/09/16 09:30:07;;;;;;;3.03;1.65;;;;;;;22.50;100.00;95117.53;5050872;28;20318;-73
2023/09/16 09:32:35;;;;;;;2.33;1.73;;;;;;;23.00;100.00;95106.53;5051035;28;20220;-75
2023/09/16 09:35:06;;;;;;;2.28;1.50;;;;;;;23.27;100.00;95104.91;5046277;28;20592;-76
2023/09/16 09:37:35;;;;;;;1.90;1.60;;;;;;;22.92;100.00;95104.97;5049327;28;20200;-74
2023/09/16 09:40:13;;;;;;;0.28;0.28;;;;;;;23.11;100.00;95099.00;5050770;28;20314;-74
2023/09/16 09:42:41;;;;;;;0.35;0.35;;;;;;;23.92;100.00;95098.03;5046572;28;20208;-75
2023/09/16 09:45:10;;;;;;;0.38;0.38;;;;;;;23.83;100.00;95092.16;5046095;28;20211;-74
2023/09/16 09:47:39;;;;;;;0.20;0.20;;;;;;;23.89;100.00;95093.34;5040489;28;20270;-76
2023/09/16 09:50:08;;;;;;;0.30;0.30;;;;;;;23.49;100.00;95094.63;5042404;28;20200;-75
2023/09/16 09:52:36;;;;;;;1.65;1.25;;;;;;;22.98;100.00;95086.78;5048002;28;20200;-77
2023/09/16 09:55:04;;;;;;;1.48;1.35;;;;;;;22.57;100.00;95100.94;5045361;28;20727;-75
2023/09/16 09:57:31;;;;;;;2.08;1.80;;;;;;;23.02;100.00;95101.41;5049914;28;20203;-75
2023/09/16 10:00:00;;;;;;;1.60;1.13;;;;;;;23.27;100.00;95098.59;5049951;28;20282;-75
2023/09/16 10:02:30;;;;;;;2.28;1.60;;;;;;;23.87;100.00;95087.41;5057520;28;20302;-75
2023/09/16 10:05:01;;;;;;;1.40;1.25;;;;;;;24.01;100.00;95092.88;5045859;28;20735;-76
2023/09/16 10:07:29;;;;;;;2.03;1.25;;;;;;;23.99;100.00;95088.94;5046788;28;20195;-74
2023/09/16 10:09:57;;;;;;;2.38;1.52;;;;;;;24.53;100.00;95087.47;5038321;28;20207;-75
2023/09/16 10:12:25;;;;;;;4.10;1.83;;;;;;;24.73;100.00;95093.28;5033946;28;20231;-75
2023/09/16 10:14:52;;;;;;;1.63;1.30;;;;;;;24.48;100.00;95082.34;5039181;28;20653;-76
2023/09/16 10:17:19;;;;;;;2.20;1.50;;;;;;;23.76;100.00;95086.66;5042376;28;20210;-76
2023/09/16 10:19:46;;;;;;;2.10;1.42;;;;;;;24.57;100.00;95074.41;5037098;28;21148;-76
2023/09/16 10:22:14;;;;;;;1.42;1.30;;;;;;;24.66;100.00;95076.69;5035977;28;20565;-78
2023/09/16 10:24:43;;;;;;;1.75;1.38;;;;;;;24.92;100.00;95061.44;5039430;28;20193;-77
2023/09/16 10:27:23;;;;;;;1.63;1.50;;;;;;;24.55;93.94;95071.25;5038393;28;20251;-78
2023/09/16 10:29:51;;;;;;;2.17;1.40;;;;;;;24.83;80.19;95075.00;5041814;28;20210;-79
2023/09/16 10:32:18;;;;;;;1.70;1.50;;;;;;;24.27;81.55;95082.50;5038615;28;20228;-77
2023/09/16 10:34:46;;;;;;;1.30;1.20;;;;;;;24.95;80.13;95072.53;5049863;28;20203;-78
2023/09/16 10:37:17;;;;;;;2.00;1.52;;;;;;;25.58;77.51;95070.31;5050330;28;20250;-75
2023/09/16 10:39:46;;;;;;;1.77;1.25;;;;;;;25.99;76.90;95078.59;5050408;28;20200;-75
2023/09/16 10:42:19;;;;;;;1.67;1.38;;;;;;;26.23;75.64;95070.38;5050239;28;20629;-75
2023/09/16 10:44:49;;;;;;;2.53;1.50;;;;;;;26.41;73.56;95059.81;5050101;28;20213;-75
2023/09/16 10:47:22;;;;;;;1.98;1.40;;;;;;;26.59;74.24;95054.78;5049979;28;20227;-75
2023/09/16 10:49:49;;;;;;;2.80;2.00;;;;;;;26.61;73.60;95046.81;5043163;28;20200;-77
2023/09/16 10:52:21;;;;;;;1.42;1.20;;;;;;;26.54;74.01;95046.91;5047991;28;20250;-77
2023/09/16 10:54:59;;;;;;;3.10;1.67;;;;;;;26.30;75.16;95053.63;5041203;28;20208;-76
2023/09/16 10:57:44;;;;;;;2.03;1.70;;;;;;;26.34;73.61;95043.25;5047045;28;20208;-77
2023/09/16 11:00:16;;;;;;;2.38;1.30;;;;;;;26.01;74.66;95047.63;5050018;28;20214;-77
2023/09/16 11:02:51;;;;;;;2.20;1.63;;;;;;;26.36;72.92;95040.84;5058002;28;20293;-77
2023/09/16 11:05:21;;;;;;;2.28;1.50;;;;;;;26.35;63.92;95040.06;5049866;28;20199;-75
2023/09/16 11:07:49;;;;;;;1.52;1.20;;;;;;;26.77;62.43;95040.59;5049927;28;20235;-76
2023/09/16 11:10:16;;;;;;;1.67;1.38;;;;;;;26.77;60.62;95038.63;5049856;28;20571;-75
2023/09/16 11:12:47;;;;;;;1.85;1.30;;;;;;;26.68;62.74;95027.22;5050023;28;20259;-77
2023/09/16 11:15:18;;;;;;;1.77;1.38;;;;;;;25.99;63.44;95025.84;5050167;28;20218;-75
2023/09/16 11:17:48;;;;;;;1.77;1.27;;;;;;;25.44;63.68;95026.88;5048389;28;20273;-75
2023/09/16 11:20:21;;;;;;;1.02;0.93;;;;;;;25.82;63.80;95018.53;5036725;28;20207;-77
2023/09/16 11:22:52;;;;;;;1.92;1.25;;;;;;;25.90;63.78;95025.56;5050194;28;20546;-76
2023/09/16 11:25:22;;;;;;;1.85;1.45;;;;;;;25.81;65.13;95028.06;5050155;28;20573;-78
2023/09/16 11:27:51;;;;;;;2.22;1.45;;;;;;;25.42;66.76;95028.50;5048885;28;20239;-78
2023/09/16 11:30:21;;;;;;;2.60;1.40;;;;;;;25.22;67.33;95014.44;5049783;28;20548;-77